createdAt,value
2018-12-22T00:01:57.526Z,9.91
2018-12-22T00:04:23.475Z,9.86
2018-12-22T00:06:49.330Z,9.88
2018-12-22T00:09:15.165Z,9.89
2018-12-22T00:11:41.026Z,9.90
2018-12-22T00:14:06.878Z,9.92
2018-12-22T00:16:32.733Z,9.93
2018-12-22T00:18:58.590Z,9.91
2018-12-22T00:21:24.446Z,9.89
2018-12-22T00:23:50.283Z,9.89
2018-12-22T00:26:16.140Z,9.83
2018-12-22T00:28:42.012Z,9.83
2018-12-22T00:31:07.876Z,9.83
2018-12-22T00:33:33.796Z,9.84
2018-12-22T00:35:59.657Z,9.82
2018-12-22T00:38:25.502Z,9.87
2018-12-22T00:40:51.437Z,9.81
2018-12-22T00:43:17.304Z,9.82
2018-12-22T00:45:43.186Z,9.78
2018-12-22T00:48:09.098Z,9.81
2018-12-22T00:50:34.960Z,9.80
2018-12-22T00:53:00.900Z,9.78
2018-12-22T00:55:26.767Z,9.82
2018-12-22T00:57:52.610Z,9.78
2018-12-22T01:00:25.521Z,9.75
2018-12-22T01:02:51.366Z,9.74
2018-12-22T01:05:17.231Z,9.68
2018-12-22T01:07:43.086Z,9.75
2018-12-22T01:10:08.918Z,9.73
2018-12-22T01:12:34.774Z,9.69
2018-12-22T01:15:00.598Z,9.68
2018-12-22T01:17:26.449Z,9.71
2018-12-22T01:19:52.283Z,9.70
2018-12-22T01:22:18.225Z,9.71
2018-12-22T01:24:44.074Z,9.75
2018-12-22T01:27:09.907Z,9.77
2018-12-22T01:29:42.818Z,9.76
2018-12-22T01:32:08.714Z,9.77
2018-12-22T01:34:34.558Z,9.76
2018-12-22T01:37:00.430Z,9.73
2018-12-22T01:39:26.282Z,9.74
2018-12-22T01:41:52.153Z,9.70
2018-12-22T01:44:18.014Z,9.81
2018-12-22T01:46:44.002Z,9.75
2018-12-22T01:49:09.875Z,9.74
2018-12-22T01:51:35.765Z,9.68
2018-12-22T01:54:01.622Z,9.63
2018-12-22T01:56:27.493Z,9.67
2018-12-22T01:58:53.366Z,9.73
2018-12-22T02:01:19.366Z,9.82
2018-12-22T02:03:45.235Z,9.80
2018-12-22T02:06:11.091Z,9.76
2018-12-22T02:08:37.055Z,9.73
2018-12-22T02:11:03.022Z,9.72
2018-12-22T02:13:28.890Z,9.72
2018-12-22T02:15:54.806Z,9.69
2018-12-22T02:18:20.685Z,9.71
2018-12-22T02:20:46.506Z,9.72
2018-12-22T02:23:12.399Z,9.67
2018-12-22T02:25:38.323Z,9.65
2018-12-22T02:28:05.139Z,9.64
2018-12-22T02:30:30.985Z,9.65
2018-12-22T02:32:56.878Z,9.64
2018-12-22T02:35:22.734Z,9.64
2018-12-22T02:37:48.602Z,9.68
2018-12-22T02:40:14.643Z,9.68
2018-12-22T02:42:40.534Z,9.68
2018-12-22T02:45:06.498Z,9.66
2018-12-22T02:47:32.323Z,9.67
2018-12-22T02:49:58.171Z,9.60
2018-12-22T02:52:24.045Z,9.72
2018-12-22T02:54:49.925Z,9.72
2018-12-22T02:57:22.729Z,9.70
2018-12-22T02:59:48.642Z,9.72
2018-12-22T03:02:14.474Z,9.67
2018-12-22T03:04:40.438Z,9.67
2018-12-22T03:07:06.305Z,9.71
2018-12-22T03:09:32.150Z,9.75
2018-12-22T03:11:57.982Z,9.72
2018-12-22T03:14:23.911Z,9.71
2018-12-22T03:16:56.913Z,9.72
2018-12-22T03:19:22.797Z,9.71
2018-12-22T03:21:48.651Z,9.68
2018-12-22T03:24:14.527Z,9.74
2018-12-22T03:26:47.538Z,9.73
2018-12-22T03:29:15.854Z,9.72
2018-12-22T03:31:41.298Z,9.68
2018-12-22T03:34:07.161Z,9.69
2018-12-22T03:36:33.094Z,9.71
2018-12-22T03:38:58.969Z,9.69
2018-12-22T03:41:24.871Z,9.69
2018-12-22T03:43:50.754Z,9.68
2018-12-22T03:46:16.583Z,9.64
2018-12-22T03:48:42.516Z,9.68
2018-12-22T03:51:08.451Z,9.67
2018-12-22T03:53:34.375Z,9.68
2018-12-22T03:56:00.242Z,9.62
2018-12-22T03:58:26.111Z,9.66
2018-12-22T04:00:51.989Z,9.66
2018-12-22T04:03:17.861Z,9.64
2018-12-22T04:05:43.694Z,9.60
2018-12-22T04:08:09.541Z,9.67
2018-12-22T04:10:35.378Z,9.62
2018-12-22T04:13:01.218Z,9.64
2018-12-22T04:15:27.063Z,9.54
2018-12-22T04:17:52.921Z,9.68
2018-12-22T04:20:18.764Z,9.68
2018-12-22T04:22:44.591Z,9.70
2018-12-22T04:25:10.420Z,9.64
2018-12-22T04:27:36.373Z,9.72
2018-12-22T04:30:02.364Z,9.71
2018-12-22T04:32:28.211Z,9.69
2018-12-22T04:34:54.059Z,9.69
2018-12-22T04:37:19.955Z,9.64
2018-12-22T04:39:45.947Z,9.66
2018-12-22T04:42:11.805Z,9.63
2018-12-22T04:44:37.692Z,9.67
2018-12-22T04:47:03.553Z,9.67
2018-12-22T04:49:29.384Z,9.64
2018-12-22T04:51:55.227Z,9.64
2018-12-22T04:54:21.107Z,9.65
2018-12-22T04:56:46.938Z,9.63
2018-12-22T04:59:12.872Z,9.60
2018-12-22T05:01:38.794Z,9.60
2018-12-22T05:04:04.661Z,9.58
2018-12-22T05:06:30.529Z,9.56
2018-12-22T05:08:56.399Z,9.59
2018-12-22T05:11:22.318Z,9.53
2018-12-22T05:13:48.201Z,9.58
2018-12-22T05:16:14.075Z,9.57
2018-12-22T05:21:32.666Z,9.57
2018-12-22T05:23:58.558Z,9.60
2018-12-22T05:26:24.465Z,9.67
2018-12-22T05:28:50.401Z,9.65
2018-12-22T05:31:16.230Z,9.62
2018-12-22T05:33:42.075Z,9.61
2018-12-22T05:36:07.927Z,9.61
2018-12-22T05:38:33.840Z,9.61
2018-12-22T05:40:59.709Z,9.58
2018-12-22T05:43:25.665Z,9.58
2018-12-22T05:45:51.511Z,9.44
2018-12-22T05:48:17.379Z,9.46
2018-12-22T05:50:43.327Z,9.52
2018-12-22T05:53:09.283Z,9.45
2018-12-22T05:55:35.169Z,9.55
2018-12-22T06:00:33.838Z,9.65
2018-12-22T06:02:59.686Z,9.63
2018-12-22T06:05:25.535Z,9.71
2018-12-22T06:07:51.358Z,9.78
2018-12-22T06:10:17.219Z,9.81
2018-12-22T06:12:43.054Z,9.82
2018-12-22T06:15:08.891Z,9.85
2018-12-22T06:17:34.726Z,9.72
2018-12-22T06:20:00.650Z,9.72
2018-12-22T06:22:26.481Z,9.67
2018-12-22T06:24:52.426Z,9.63
2018-12-22T06:27:18.348Z,9.58
2018-12-22T06:29:44.199Z,9.53
2018-12-22T06:32:10.032Z,9.50
2018-12-22T06:34:35.871Z,9.45
2018-12-22T06:37:01.766Z,9.42
2018-12-22T06:39:27.755Z,9.42
2018-12-22T06:41:53.616Z,9.40
2018-12-22T06:44:19.464Z,9.42
2018-12-22T06:46:45.362Z,9.39
2018-12-22T06:49:11.323Z,9.41
2018-12-22T06:51:37.402Z,9.43
2018-12-22T06:54:03.296Z,9.41
2018-12-22T06:56:29.155Z,9.38
2018-12-22T06:58:54.978Z,9.31
2018-12-22T07:01:20.821Z,9.42
2018-12-22T07:03:46.680Z,9.47
2018-12-22T07:06:12.529Z,9.44
2018-12-22T07:08:38.402Z,9.42
2018-12-22T07:11:04.269Z,9.44
2018-12-22T07:13:30.143Z,9.29
2018-12-22T07:15:56.015Z,9.41
2018-12-22T07:18:21.889Z,9.46
2018-12-22T07:20:47.905Z,9.48
2018-12-22T07:23:13.773Z,9.56
2018-12-22T07:25:39.666Z,9.54
2018-12-22T07:28:05.563Z,9.45
2018-12-22T07:30:31.416Z,9.37
2018-12-22T07:32:57.562Z,9.31
2018-12-22T07:35:23.618Z,9.27
2018-12-22T07:37:49.502Z,9.31
2018-12-22T07:40:15.351Z,9.34
2018-12-22T07:42:41.185Z,9.26
2018-12-22T07:45:07.018Z,9.29
2018-12-22T07:47:32.875Z,9.32
2018-12-22T07:49:58.855Z,9.35
2018-12-22T07:52:24.755Z,9.31
2018-12-22T07:54:50.611Z,9.40
2018-12-22T07:57:16.464Z,9.43
2018-12-22T07:59:42.327Z,9.31
2018-12-22T08:02:15.207Z,9.32
2018-12-22T08:04:41.033Z,8.79
2018-12-22T08:07:06.857Z,9.40
2018-12-22T08:09:32.717Z,9.37
2018-12-22T08:11:58.570Z,9.34
2018-12-22T08:14:24.519Z,9.36
2018-12-22T08:16:50.404Z,9.39
2018-12-22T08:19:16.255Z,9.38
2018-12-22T08:21:42.093Z,9.42
2018-12-22T08:24:07.935Z,9.42
2018-12-22T08:26:33.832Z,9.40
2018-12-22T08:28:59.690Z,9.39
2018-12-22T08:31:25.597Z,9.55
2018-12-22T08:33:51.451Z,9.56
2018-12-22T08:36:17.299Z,9.54
2018-12-22T08:38:43.226Z,9.46
2018-12-22T08:41:09.174Z,9.44
2018-12-22T08:46:15.267Z,9.35
2018-12-22T08:48:41.161Z,9.28
2018-12-22T08:51:07.032Z,9.19
2018-12-22T08:53:32.867Z,9.26
2018-12-22T08:55:58.725Z,9.25
2018-12-22T08:58:24.578Z,9.32
2018-12-22T09:00:52.265Z,9.36
2018-12-22T09:03:18.426Z,9.39
2018-12-22T09:05:44.283Z,9.41
2018-12-22T09:08:10.118Z,9.45
2018-12-22T09:10:36.081Z,9.49
2018-12-22T09:13:01.941Z,9.51
2018-12-22T09:15:27.897Z,9.54
2018-12-22T09:17:53.765Z,9.56
2018-12-22T09:20:19.603Z,9.58
2018-12-22T09:22:45.456Z,9.59
2018-12-22T09:25:11.322Z,9.61
2018-12-22T09:27:37.142Z,9.64
2018-12-22T09:30:07.024Z,9.67
2018-12-22T09:32:32.913Z,9.67
2018-12-22T09:34:58.833Z,9.62
2018-12-22T09:37:24.762Z,9.59
2018-12-22T09:39:50.618Z,9.53
2018-12-22T09:42:16.604Z,9.52
2018-12-22T09:44:42.533Z,9.53
2018-12-22T09:47:08.376Z,9.54
2018-12-22T09:49:34.367Z,9.58
2018-12-22T09:52:00.291Z,9.60
2018-12-22T09:54:26.134Z,9.62
2018-12-22T09:56:52.014Z,9.64
2018-12-22T09:59:17.903Z,9.61
2018-12-22T10:01:43.784Z,9.62
2018-12-22T10:04:09.645Z,9.68
2018-12-22T10:06:35.513Z,9.68
2018-12-22T10:09:01.381Z,9.68
2018-12-22T10:11:27.275Z,9.67
2018-12-22T10:13:53.138Z,9.75
2018-12-22T10:16:19.035Z,9.83
2018-12-22T10:18:44.872Z,9.83
2018-12-22T10:21:10.790Z,9.85
2018-12-22T10:23:36.656Z,9.88
2018-12-22T10:26:02.543Z,9.91
2018-12-22T10:28:28.410Z,9.93
2018-12-22T10:30:54.275Z,10.01
2018-12-22T10:33:20.190Z,10.03
2018-12-22T10:35:46.131Z,10.10
2018-12-22T10:38:12.054Z,10.21
2018-12-22T10:40:37.928Z,10.21
2018-12-22T10:43:03.785Z,10.22
2018-12-22T10:45:29.685Z,10.26
2018-12-22T10:47:55.642Z,10.31
2018-12-22T10:50:21.644Z,10.31
2018-12-22T10:52:48.813Z,10.34
2018-12-22T10:55:14.919Z,10.45
2018-12-22T10:57:40.932Z,10.51
2018-12-22T11:00:09.827Z,10.45
2018-12-22T11:02:35.704Z,10.30
2018-12-22T11:05:01.563Z,10.29
2018-12-22T11:07:27.433Z,10.26
2018-12-22T11:09:53.327Z,10.26
2018-12-22T11:12:19.191Z,10.23
2018-12-22T11:14:45.089Z,10.26
2018-12-22T11:17:10.989Z,10.32
2018-12-22T11:19:36.867Z,10.26
2018-12-22T11:22:02.837Z,10.39
2018-12-22T11:24:28.855Z,10.44
2018-12-22T11:26:54.743Z,10.39
2018-12-22T11:29:20.770Z,10.33
2018-12-22T11:31:46.638Z,10.29
2018-12-22T11:34:12.640Z,10.20
2018-12-22T11:36:38.486Z,10.15
2018-12-22T11:39:05.780Z,10.09
2018-12-22T11:41:31.708Z,9.93
2018-12-22T11:43:57.616Z,9.83
2018-12-22T11:46:23.548Z,9.86
2018-12-22T11:48:49.913Z,9.83
2018-12-22T11:51:15.793Z,9.75
2018-12-22T11:53:41.661Z,9.65
2018-12-22T11:56:07.557Z,9.55
2018-12-22T11:58:33.475Z,9.47
2018-12-22T12:00:59.481Z,9.35
2018-12-22T12:03:25.325Z,9.24
2018-12-22T12:05:51.208Z,9.15
2018-12-22T12:08:17.199Z,9.01
2018-12-22T12:10:43.064Z,8.86
2018-12-22T12:13:08.939Z,8.67
2018-12-22T12:15:38.807Z,8.39
2018-12-22T12:18:09.568Z,8.33
2018-12-22T12:20:35.452Z,8.24
2018-12-22T12:23:01.304Z,8.35
2018-12-22T12:25:27.191Z,8.52
2018-12-22T12:27:53.150Z,8.54
2018-12-22T12:30:19.092Z,8.51
2018-12-22T12:32:45.043Z,8.48
2018-12-22T12:35:11.033Z,8.48
2018-12-22T12:37:36.868Z,8.32
2018-12-22T12:40:06.849Z,8.36
2018-12-22T12:42:32.747Z,8.35
2018-12-22T12:44:58.614Z,8.12
2018-12-22T12:47:24.609Z,8.18
2018-12-22T12:49:50.527Z,8.10
2018-12-22T12:52:16.382Z,7.99
2018-12-22T12:54:42.292Z,8.00
2018-12-22T12:57:08.417Z,8.12
2018-12-22T12:59:34.458Z,7.74
2018-12-22T13:02:01.397Z,8.21
2018-12-22T13:04:27.578Z,8.31
2018-12-22T13:06:53.534Z,8.48
2018-12-22T13:09:19.540Z,8.37
2018-12-22T13:11:45.854Z,8.17
2018-12-22T13:14:11.846Z,8.22
2018-12-22T13:16:37.802Z,8.19
2018-12-22T13:19:03.751Z,8.16
2018-12-22T13:21:29.633Z,8.30
2018-12-22T13:23:55.502Z,8.33
2018-12-22T13:26:21.456Z,8.60
2018-12-22T13:28:47.668Z,8.58
2018-12-22T13:31:14.112Z,8.49
2018-12-22T13:33:40.005Z,8.67
2018-12-22T13:36:07.014Z,8.49
2018-12-22T13:38:33.359Z,8.49
2018-12-22T13:40:59.262Z,8.62
2018-12-22T13:43:25.145Z,8.57
2018-12-22T13:45:50.999Z,8.66
2018-12-22T13:48:17.118Z,8.61
2018-12-22T13:50:43.333Z,8.57
2018-12-22T13:53:09.433Z,8.36
2018-12-22T13:55:35.325Z,8.46
2018-12-22T13:58:01.201Z,8.40
2018-12-22T14:00:28.776Z,8.41
2018-12-22T14:02:54.678Z,8.37
2018-12-22T14:05:24.958Z,8.39
2018-12-22T14:07:50.903Z,8.34
2018-12-22T14:10:17.226Z,8.41
2018-12-22T14:12:43.139Z,8.41
2018-12-22T14:15:26.354Z,8.31
2018-12-22T14:18:13.795Z,8.25
2018-12-22T14:20:39.672Z,8.32
2018-12-22T14:23:05.554Z,8.29
2018-12-22T14:25:31.468Z,8.34
2018-12-22T14:27:57.372Z,8.32
2018-12-22T14:30:23.233Z,8.29
2018-12-22T14:32:49.135Z,8.26
2018-12-22T14:35:19.080Z,8.08
2018-12-22T14:37:44.995Z,8.03
2018-12-22T14:40:11.217Z,7.91
2018-12-22T14:42:37.451Z,7.71
2018-12-22T14:45:08.996Z,7.62
2018-12-22T14:47:34.891Z,7.58
2018-12-22T14:50:00.760Z,7.60
2018-12-22T14:52:26.641Z,7.54
2018-12-22T14:54:52.496Z,7.50
2018-12-22T14:57:18.534Z,7.58
2018-12-22T14:59:44.575Z,7.35
2018-12-22T15:02:10.467Z,7.33
2018-12-22T15:04:36.371Z,7.44
2018-12-22T15:07:02.535Z,7.53
2018-12-22T15:09:28.434Z,7.34
2018-12-22T15:11:54.412Z,7.31
2018-12-22T15:14:20.305Z,7.23
2018-12-22T15:16:48.427Z,7.24
2018-12-22T15:19:14.158Z,7.35
2018-12-22T15:21:40.258Z,7.34
2018-12-22T15:24:06.286Z,7.29
2018-12-22T15:26:32.282Z,7.36
2018-12-22T15:28:58.300Z,7.32
2018-12-22T15:31:24.193Z,7.27
2018-12-22T15:33:50.187Z,7.23
2018-12-22T15:36:16.070Z,7.21
2018-12-22T15:38:41.973Z,7.27
2018-12-22T15:41:07.803Z,7.25
2018-12-22T15:43:33.679Z,7.23
2018-12-22T15:45:59.551Z,7.03
2018-12-22T15:48:25.442Z,6.91
2018-12-22T15:50:51.328Z,6.96
2018-12-22T15:53:17.186Z,7.03
2018-12-22T15:55:43.060Z,6.89
2018-12-22T15:58:08.959Z,6.82
2018-12-22T16:00:34.859Z,6.74
2018-12-22T16:03:00.749Z,6.76
2018-12-22T16:05:26.651Z,6.94
2018-12-22T16:07:52.608Z,6.91
2018-12-22T16:10:18.501Z,6.96
2018-12-22T16:12:44.399Z,6.90
2018-12-22T16:15:14.525Z,6.95
2018-12-22T16:17:40.434Z,6.92
2018-12-22T16:20:10.532Z,7.00
2018-12-22T16:22:37.805Z,6.96
2018-12-22T16:25:11.502Z,6.94
2018-12-22T16:27:35.478Z,6.80
2018-12-22T16:30:09.043Z,6.76
2018-12-22T16:32:34.937Z,6.81
2018-12-22T16:35:07.751Z,6.70
2018-12-22T16:37:33.622Z,6.39
2018-12-22T16:39:59.488Z,6.30
2018-12-22T16:42:25.382Z,6.29
2018-12-22T16:44:51.325Z,6.33
2018-12-22T16:47:17.205Z,6.18
2018-12-22T16:49:43.108Z,6.19
2018-12-22T16:52:08.965Z,6.17
2018-12-22T16:54:34.825Z,6.11
2018-12-22T16:57:00.687Z,6.05
2018-12-22T16:59:26.667Z,6.26
2018-12-22T17:01:52.543Z,6.41
2018-12-22T17:04:18.394Z,6.51
2018-12-22T17:06:44.290Z,6.41
2018-12-22T17:09:11.070Z,6.25
2018-12-22T17:11:37.148Z,6.20
2018-12-22T17:14:03.103Z,6.12
2018-12-22T17:16:29.011Z,6.04
2018-12-22T17:18:55.039Z,6.11
2018-12-22T17:21:21.510Z,5.97
2018-12-22T17:23:51.762Z,5.90
2018-12-22T17:26:19.325Z,6.00
2018-12-22T17:28:45.189Z,6.32
2018-12-22T17:31:11.163Z,6.30
2018-12-22T17:33:37.072Z,6.38
2018-12-22T17:36:03.362Z,6.21
2018-12-22T17:38:29.254Z,6.23
2018-12-22T17:40:55.342Z,5.79
2018-12-22T17:43:21.218Z,5.79
2018-12-22T17:45:47.095Z,5.84
2018-12-22T17:48:12.990Z,5.66
2018-12-22T17:50:38.887Z,5.76
2018-12-22T17:53:04.759Z,5.82
2018-12-22T17:55:30.608Z,5.98
2018-12-22T17:57:56.676Z,5.78
2018-12-22T18:00:22.581Z,5.68
2018-12-22T18:02:48.467Z,5.64
2018-12-22T18:05:14.450Z,5.66
2018-12-22T18:07:40.337Z,5.92
2018-12-22T18:10:09.217Z,5.95
2018-12-22T18:12:35.114Z,5.94
2018-12-22T18:15:01.633Z,5.98
2018-12-22T18:17:27.570Z,5.96
2018-12-22T18:19:53.489Z,6.10
2018-12-22T18:22:19.503Z,6.15
2018-12-22T18:24:45.411Z,6.09
2018-12-22T18:27:11.300Z,6.13
2018-12-22T18:29:37.143Z,6.10
2018-12-22T18:32:03.055Z,6.20
2018-12-22T18:34:28.989Z,6.46
2018-12-22T18:36:54.830Z,6.63
2018-12-22T18:39:20.811Z,6.69
2018-12-22T18:41:46.717Z,6.72
2018-12-22T18:44:12.752Z,6.74
2018-12-22T18:46:38.652Z,6.72
2018-12-22T18:49:04.582Z,6.67
2018-12-22T18:51:30.421Z,6.67
2018-12-22T18:53:56.252Z,6.62
2018-12-22T18:56:22.093Z,6.61
2018-12-22T18:58:48.047Z,6.61
2018-12-22T19:01:13.924Z,6.63
2018-12-22T19:03:44.658Z,6.60
2018-12-22T19:06:07.742Z,6.58
2018-12-22T19:08:33.643Z,6.56
2018-12-22T19:10:59.522Z,6.53
2018-12-22T19:13:25.453Z,6.53
2018-12-22T19:15:51.557Z,6.51
2018-12-22T19:18:17.440Z,6.38
2018-12-22T19:20:43.449Z,6.44
2018-12-22T19:23:10.147Z,6.41
2018-12-22T19:25:36.350Z,6.43
2018-12-22T19:28:02.281Z,6.42
2018-12-22T19:30:28.152Z,6.44
2018-12-22T19:32:54.036Z,6.46
2018-12-22T19:35:19.931Z,6.42
2018-12-22T19:37:45.869Z,6.43
2018-12-22T19:40:11.794Z,6.41
2018-12-22T19:42:37.683Z,6.44
2018-12-22T19:45:05.049Z,6.44
2018-12-22T19:47:30.923Z,6.42
2018-12-22T19:49:56.868Z,6.42
2018-12-22T19:52:22.766Z,6.49
2018-12-22T19:54:48.654Z,6.46
2018-12-22T19:57:14.583Z,6.48
2018-12-22T19:59:40.521Z,6.52
2018-12-22T20:02:06.429Z,6.46
2018-12-22T20:04:39.046Z,6.51
2018-12-22T20:07:04.937Z,6.51
2018-12-22T20:09:31.101Z,6.54
2018-12-22T20:11:56.967Z,6.56
2018-12-22T20:14:22.829Z,6.58
2018-12-22T20:16:48.808Z,6.57
2018-12-22T20:19:14.702Z,6.59
2018-12-22T20:21:40.601Z,6.60
2018-12-22T20:24:06.495Z,6.61
2018-12-22T20:26:32.358Z,6.65
2018-12-22T20:28:58.219Z,6.59
2018-12-22T20:31:24.118Z,6.61
2018-12-22T20:33:49.991Z,6.58
2018-12-22T20:36:15.859Z,6.59
2018-12-22T20:38:41.865Z,6.55
2018-12-22T20:41:07.801Z,6.63
2018-12-22T20:43:33.676Z,6.73
2018-12-22T20:45:59.547Z,6.78
2018-12-22T20:48:25.398Z,6.79
2018-12-22T20:50:51.273Z,6.80
2018-12-22T20:53:17.172Z,6.89
2018-12-22T20:55:43.072Z,6.88
2018-12-22T20:58:09.147Z,6.89
2018-12-22T21:00:35.058Z,6.89
2018-12-22T21:03:00.936Z,6.90
2018-12-22T21:05:28.030Z,6.82
2018-12-22T21:07:53.934Z,6.86
2018-12-22T21:10:19.870Z,6.88
2018-12-22T21:12:45.743Z,6.82
2018-12-22T21:15:11.616Z,6.90
2018-12-22T21:17:37.490Z,6.93
2018-12-22T21:20:04.284Z,6.90
2018-12-22T21:22:30.183Z,6.93
2018-12-22T21:24:56.035Z,6.92
2018-12-22T21:27:21.907Z,6.90
2018-12-22T21:29:47.760Z,6.84
2018-12-22T21:32:13.630Z,6.86
2018-12-22T21:34:39.512Z,6.96
2018-12-22T21:37:05.433Z,6.97
2018-12-22T21:39:31.311Z,6.99
2018-12-22T21:41:57.172Z,7.03
2018-12-22T21:44:23.080Z,7.02
2018-12-22T21:46:48.942Z,6.97
2018-12-22T21:49:14.903Z,6.96
2018-12-22T21:51:40.746Z,6.80
2018-12-22T21:54:06.638Z,6.87
2018-12-22T21:56:32.512Z,6.76
2018-12-22T21:58:58.397Z,6.78
2018-12-22T22:01:24.259Z,6.87
2018-12-22T22:03:50.109Z,6.69
2018-12-22T22:06:15.978Z,6.79
2018-12-22T22:08:42.066Z,6.96
2018-12-22T22:11:07.919Z,6.87
2018-12-22T22:13:33.798Z,7.06
2018-12-22T22:15:59.698Z,6.86
2018-12-22T22:18:25.570Z,6.81
2018-12-22T22:20:51.414Z,6.86
2018-12-22T22:23:19.121Z,7.01
2018-12-22T22:25:45.181Z,7.07
2018-12-22T22:28:11.231Z,7.15
2018-12-22T22:30:37.138Z,7.17
2018-12-22T22:33:03.018Z,7.16
2018-12-22T22:35:28.974Z,7.07
2018-12-22T22:37:54.825Z,7.14
2018-12-22T22:40:20.711Z,7.00
2018-12-22T22:42:46.571Z,7.04
2018-12-22T22:45:12.685Z,7.10
2018-12-22T22:47:38.570Z,7.13
2018-12-22T22:50:04.455Z,7.14
2018-12-22T22:52:30.374Z,6.91
2018-12-22T22:54:56.232Z,6.61
2018-12-22T22:57:22.126Z,6.58
2018-12-22T22:59:47.999Z,6.49
2018-12-22T23:02:13.886Z,6.55
2018-12-22T23:04:39.781Z,6.44
2018-12-22T23:07:05.675Z,6.37
2018-12-22T23:09:31.607Z,6.39
2018-12-22T23:11:57.482Z,6.50
2018-12-22T23:14:23.353Z,6.49
2018-12-22T23:16:49.336Z,6.19
2018-12-22T23:19:15.301Z,6.50
2018-12-22T23:21:41.158Z,6.55
2018-12-22T23:24:07.038Z,6.50
2018-12-22T23:26:32.917Z,6.52
2018-12-22T23:28:58.777Z,6.42
2018-12-22T23:31:24.635Z,6.36
2018-12-22T23:33:50.475Z,6.39
2018-12-22T23:36:16.329Z,6.47
2018-12-22T23:38:42.182Z,6.27
2018-12-22T23:41:08.049Z,6.21
2018-12-22T23:43:33.927Z,6.24
2018-12-22T23:45:59.781Z,6.26
2018-12-22T23:48:25.647Z,6.39
2018-12-22T23:50:51.502Z,6.40
2018-12-22T23:53:17.331Z,6.30
2018-12-22T23:55:43.191Z,6.16
2018-12-22T23:58:09.059Z,6.10
